LIC0195 LECO-LEBB

Flight info

Callsign LIC0195
Flight time 0h 49m
Altitude 33000
Route ROXER M190 SNR
Aircraft A320/M-SDE3FGHIRWY/LB1

Departure

Time 2026-05-05 18:00
Airport A Coruña Airport (LECO)

Arrival

Time 2026-05-05 18:50
Airport Bilbao Airport (LEBB)
Time Latitude Longitude Altitude Speed Heading
2026-05-05 17:49 43.30165 -8.38081 341 ft 0 kts 327°
2026-05-05 17:50 43.30156 -8.38074 337 ft 4 kts 321°
2026-05-05 17:50 43.30140 -8.38048 336 ft 4 kts 278°
2026-05-05 17:50 43.30145 -8.38022 335 ft 2 kts 212°
2026-05-05 17:50 43.30150 -8.38017 335 ft 0 kts 211°
2026-05-05 17:55 43.30144 -8.38023 337 ft 4 kts 211°
2026-05-05 17:55 43.30107 -8.38053 338 ft 7 kts 211°
2026-05-05 17:56 43.30047 -8.38074 341 ft 12 kts 180°
2026-05-05 17:56 43.29971 -8.38040 350 ft 11 kts 136°
2026-05-05 17:56 43.29927 -8.37982 344 ft 8 kts 159°
2026-05-05 17:56 43.29862 -8.38001 353 ft 11 kts 204°
2026-05-05 17:57 43.29794 -8.38048 337 ft 11 kts 207°
2026-05-05 17:57 43.29727 -8.38101 341 ft 16 kts 212°
2026-05-05 17:57 43.29618 -8.38198 338 ft 19 kts 211°
2026-05-05 17:57 43.29509 -8.38288 339 ft 17 kts 211°
2026-05-05 17:58 43.29410 -8.38370 336 ft 16 kts 211°
2026-05-05 17:58 43.29321 -8.38443 338 ft 14 kts 211°
2026-05-05 17:58 43.29262 -8.38526 339 ft 12 kts 249°
2026-05-05 17:58 43.29211 -8.38592 339 ft 10 kts 176°
2026-05-05 17:59 43.29203 -8.38536 335 ft 7 kts 26°
2026-05-05 17:59 43.29225 -8.38521 338 ft 0 kts 32°
2026-05-05 17:59 43.29226 -8.38520 340 ft 5 kts 32°
2026-05-05 18:00 43.29514 -8.38289 337 ft 87 kts 30°
2026-05-05 18:00 43.30219 -8.37725 343 ft 146 kts 29°
2026-05-05 18:00 43.31181 -8.36978 783 ft 160 kts 28°
2026-05-05 18:00 43.32054 -8.36044 1586 ft 160 kts 45°
2026-05-05 18:01 43.32670 -8.34771 2255 ft 165 kts 63°
2026-05-05 18:01 43.33038 -8.33170 2541 ft 187 kts 70°
2026-05-05 18:01 43.33286 -8.31955 2712 ft 204 kts 70°
2026-05-05 18:01 43.33823 -8.29352 3549 ft 218 kts 71°
2026-05-05 18:02 43.34095 -8.28022 4171 ft 219 kts 72°
2026-05-05 18:02 43.34510 -8.25992 5093 ft 222 kts 70°
2026-05-05 18:02 43.34931 -8.23938 5967 ft 225 kts 71°
2026-05-05 18:02 43.35360 -8.21851 6815 ft 229 kts 71°
2026-05-05 18:03 43.35793 -8.19731 7609 ft 232 kts 71°
2026-05-05 18:03 43.36233 -8.17581 8418 ft 235 kts 71°
2026-05-05 18:03 43.36520 -8.15340 9228 ft 243 kts 86°
2026-05-05 18:03 43.36300 -8.12945 9750 ft 267 kts 102°
2026-05-05 18:04 43.35802 -8.10369 10145 ft 290 kts 102°
2026-05-05 18:04 43.35263 -8.07577 10470 ft 315 kts 103°
2026-05-05 18:04 43.34681 -8.04559 10793 ft 337 kts 103°
2026-05-05 18:04 43.34073 -8.01398 11443 ft 346 kts 102°
2026-05-05 18:05 43.33451 -7.98175 12211 ft 352 kts 103°
2026-05-05 18:05 43.32821 -7.94906 13000 ft 356 kts 103°
2026-05-05 18:05 43.32184 -7.91601 13805 ft 360 kts 103°
2026-05-05 18:05 43.31541 -7.88267 14520 ft 363 kts 102°
2026-05-05 18:06 43.30892 -7.84894 15222 ft 367 kts 102°
2026-05-05 18:06 43.30461 -7.82647 15694 ft 369 kts 102°
2026-05-05 18:06 43.29580 -7.78067 16661 ft 373 kts 102°
2026-05-05 18:06 43.28912 -7.74609 17376 ft 376 kts 102°
2026-05-05 18:07 43.28237 -7.71127 18071 ft 379 kts 102°
2026-05-05 18:07 43.27555 -7.67617 18691 ft 383 kts 102°
2026-05-05 18:07 43.26861 -7.64066 19229 ft 388 kts 102°
2026-05-05 18:07 43.26158 -7.60469 19771 ft 393 kts 102°
2026-05-05 18:08 43.25444 -7.56823 20315 ft 398 kts 102°
2026-05-05 18:08 43.24722 -7.53138 20826 ft 403 kts 102°
2026-05-05 18:08 43.23991 -7.49408 21325 ft 407 kts 102°
2026-05-05 18:08 43.23248 -7.45635 21833 ft 412 kts 102°
2026-05-05 18:09 43.22513 -7.41817 22314 ft 416 kts 99°
2026-05-05 18:09 43.22119 -7.37893 22790 ft 416 kts 88°
2026-05-05 18:09 43.22216 -7.33940 23288 ft 415 kts 78°
2026-05-05 18:09 43.22795 -7.30075 23747 ft 413 kts 68°
2026-05-05 18:10 43.23737 -7.26352 24143 ft 415 kts 65°
2026-05-05 18:10 43.24712 -7.22608 24541 ft 419 kts 65°
2026-05-05 18:10 43.25692 -7.18826 24984 ft 422 kts 65°
2026-05-05 18:10 43.26673 -7.15014 25384 ft 426 kts 65°
2026-05-05 18:11 43.27661 -7.11166 25758 ft 429 kts 65°
2026-05-05 18:11 43.28658 -7.07287 26134 ft 433 kts 65°
2026-05-05 18:11 43.29661 -7.03371 26497 ft 436 kts 65°
2026-05-05 18:11 43.30668 -6.99424 26874 ft 440 kts 65°
2026-05-05 18:12 43.31679 -6.95448 27236 ft 443 kts 65°
2026-05-05 18:12 43.32699 -6.91436 27561 ft 447 kts 65°
2026-05-05 18:12 43.33728 -6.87390 27922 ft 450 kts 65°
2026-05-05 18:12 43.34765 -6.83311 28308 ft 454 kts 66°
2026-05-05 18:13 43.35806 -6.79202 28682 ft 457 kts 66°
2026-05-05 18:13 43.36836 -6.75117 29022 ft 460 kts 66°
2026-05-05 18:13 43.37887 -6.70945 29299 ft 464 kts 66°
2026-05-05 18:13 43.38944 -6.66742 29608 ft 467 kts 66°
2026-05-05 18:14 43.40010 -6.62510 29931 ft 470 kts 66°
2026-05-05 18:14 43.41096 -6.58260 30194 ft 472 kts 65°
2026-05-05 18:14 43.42196 -6.53990 30440 ft 475 kts 65°
2026-05-05 18:14 43.43303 -6.49701 30701 ft 477 kts 65°
2026-05-05 18:15 43.44413 -6.45393 31036 ft 479 kts 66°
2026-05-05 18:15 43.45524 -6.41063 31326 ft 481 kts 67°
2026-05-05 18:15 43.46626 -6.36736 31808 ft 477 kts 67°
2026-05-05 18:15 43.47716 -6.32431 32257 ft 475 kts 67°
2026-05-05 18:16 43.48802 -6.28143 32628 ft 474 kts 67°
2026-05-05 18:16 43.49887 -6.23856 32963 ft 474 kts 67°
2026-05-05 18:16 43.50969 -6.19572 33050 ft 474 kts 67°
2026-05-05 18:17 43.53128 -6.11006 33055 ft 473 kts 67°
2026-05-05 18:17 43.55093 -6.02350 33053 ft 477 kts 76°
2026-05-05 18:18 43.55418 -5.93191 33057 ft 482 kts 91°
2026-05-05 18:18 43.55048 -5.83960 33056 ft 482 kts 91°
2026-05-05 18:19 43.54689 -5.74725 33054 ft 482 kts 91°
2026-05-05 18:19 43.54319 -5.65492 33048 ft 482 kts 91°
2026-05-05 18:20 43.53932 -5.56269 33048 ft 482 kts 91°
2026-05-05 18:20 43.53537 -5.47050 33049 ft 482 kts 91°
2026-05-05 18:21 43.53136 -5.37826 33048 ft 482 kts 91°
2026-05-05 18:21 43.52720 -5.28613 33044 ft 481 kts 92°
2026-05-05 18:22 43.52238 -5.19422 33047 ft 481 kts 93°
2026-05-05 18:22 43.51716 -5.10241 33031 ft 481 kts 93°
2026-05-05 18:23 43.51192 -5.01028 33040 ft 483 kts 93°
2026-05-05 18:23 43.50665 -4.91797 33041 ft 483 kts 93°
2026-05-05 18:24 43.50146 -4.82583 33030 ft 482 kts 93°
2026-05-05 18:24 43.49673 -4.73364 33032 ft 482 kts 93°
2026-05-05 18:25 43.49204 -4.64145 33033 ft 482 kts 93°
2026-05-05 18:25 43.48709 -4.54997 33035 ft 483 kts 94°
2026-05-05 18:26 43.48204 -4.45770 33032 ft 483 kts 93°
2026-05-05 18:26 43.47757 -4.36552 32691 ft 479 kts 93°
2026-05-05 18:26 43.47545 -4.31988 32431 ft 477 kts 93°
2026-05-05 18:27 43.47310 -4.27440 32173 ft 476 kts 94°
2026-05-05 18:27 43.47043 -4.22899 31922 ft 476 kts 94°
2026-05-05 18:27 43.46758 -4.18369 31666 ft 474 kts 94°
2026-05-05 18:27 43.46468 -4.13878 31108 ft 470 kts 94°
2026-05-05 18:28 43.45897 -4.04981 29795 ft 463 kts 94°
2026-05-05 18:28 43.45621 -4.00589 29181 ft 458 kts 94°
2026-05-05 18:28 43.45350 -3.96259 28588 ft 452 kts 94°
2026-05-05 18:29 43.45082 -3.91979 28003 ft 446 kts 94°
2026-05-05 18:29 43.44621 -3.87775 27417 ft 442 kts 101°
2026-05-05 18:29 43.44020 -3.83656 26842 ft 437 kts 101°
2026-05-05 18:29 43.43421 -3.79589 26272 ft 432 kts 101°
2026-05-05 18:30 43.42823 -3.75564 25727 ft 427 kts 101°
2026-05-05 18:30 43.42232 -3.71587 25192 ft 422 kts 101°
2026-05-05 18:30 43.41653 -3.67656 24675 ft 417 kts 101°
2026-05-05 18:30 43.41081 -3.63773 24168 ft 412 kts 101°
2026-05-05 18:31 43.40513 -3.59937 23684 ft 407 kts 101°
2026-05-05 18:31 43.39951 -3.56143 23153 ft 402 kts 101°
2026-05-05 18:31 43.39396 -3.52407 22695 ft 396 kts 101°
2026-05-05 18:31 43.38847 -3.48731 22233 ft 390 kts 101°
2026-05-05 18:32 43.38302 -3.45103 21780 ft 385 kts 101°
2026-05-05 18:32 43.37761 -3.41517 21330 ft 381 kts 101°
2026-05-05 18:32 43.37222 -3.37963 20855 ft 378 kts 101°
2026-05-05 18:32 43.36687 -3.34435 20404 ft 376 kts 101°
2026-05-05 18:33 43.36158 -3.30928 19930 ft 374 kts 101°
2026-05-05 18:33 43.35637 -3.27433 19458 ft 373 kts 101°
2026-05-05 18:33 43.35122 -3.23946 18973 ft 372 kts 100°
2026-05-05 18:33 43.34610 -3.20465 18481 ft 372 kts 100°
2026-05-05 18:34 43.34098 -3.16985 17969 ft 371 kts 100°
2026-05-05 18:34 43.33585 -3.13519 17481 ft 369 kts 101°
2026-05-05 18:34 43.33072 -3.10086 17011 ft 366 kts 101°
2026-05-05 18:34 43.32561 -3.06676 16537 ft 364 kts 101°
2026-05-05 18:35 43.32049 -3.03285 16078 ft 362 kts 101°
2026-05-05 18:35 43.31535 -2.99910 15611 ft 360 kts 101°
2026-05-05 18:35 43.31026 -2.96567 15148 ft 359 kts 101°
2026-05-05 18:35 43.30473 -2.93233 14687 ft 358 kts 106°
2026-05-05 18:36 43.29544 -2.90068 14220 ft 357 kts 116°
2026-05-05 18:36 43.28439 -2.87018 13744 ft 357 kts 116°
2026-05-05 18:36 43.27332 -2.83975 13242 ft 355 kts 116°
2026-05-05 18:36 43.26235 -2.80949 12757 ft 353 kts 116°
2026-05-05 18:37 43.25147 -2.77944 12277 ft 351 kts 116°
2026-05-05 18:37 43.24078 -2.74990 11796 ft 349 kts 116°
2026-05-05 18:37 43.23001 -2.72014 11313 ft 347 kts 116°
2026-05-05 18:37 43.21928 -2.69054 10821 ft 346 kts 116°
2026-05-05 18:38 43.20859 -2.66108 10378 ft 343 kts 116°
2026-05-05 18:38 43.19813 -2.63234 10241 ft 330 kts 116°
2026-05-05 18:38 43.18807 -2.60472 10117 ft 318 kts 117°
2026-05-05 18:38 43.17834 -2.57805 9956 ft 309 kts 117°
2026-05-05 18:39 43.16881 -2.55195 9630 ft 305 kts 117°
2026-05-05 18:39 43.15921 -2.52599 9236 ft 305 kts 117°
2026-05-05 18:39 43.14953 -2.50000 8529 ft 313 kts 117°
2026-05-05 18:39 43.13942 -2.47293 7650 ft 322 kts 117°
2026-05-05 18:40 43.12937 -2.44604 7169 ft 308 kts 117°
2026-05-05 18:40 43.12060 -2.42055 7012 ft 283 kts 105°
2026-05-05 18:40 43.12049 -2.39556 7004 ft 250 kts 66°
2026-05-05 18:40 43.13011 -2.37813 7005 ft 224 kts 25°
2026-05-05 18:41 43.14450 -2.37426 7010 ft 209 kts 343°
2026-05-05 18:41 43.15700 -2.38329 7009 ft 204 kts 313°
2026-05-05 18:41 43.16418 -2.39977 6966 ft 205 kts 284°
2026-05-05 18:41 43.16420 -2.41919 6841 ft 207 kts 264°
2026-05-05 18:42 43.16210 -2.43872 6709 ft 207 kts 264°
2026-05-05 18:42 43.16003 -2.45831 6604 ft 209 kts 264°
2026-05-05 18:42 43.15795 -2.47792 6483 ft 207 kts 264°
2026-05-05 18:42 43.15589 -2.49739 6354 ft 206 kts 264°
2026-05-05 18:43 43.15609 -2.51669 6215 ft 202 kts 288°
2026-05-05 18:43 43.16200 -2.53398 6102 ft 201 kts 297°
2026-05-05 18:43 43.16838 -2.55099 6024 ft 201 kts 297°
2026-05-05 18:43 43.17466 -2.56800 5992 ft 200 kts 297°
2026-05-05 18:44 43.18097 -2.58507 5876 ft 201 kts 297°
2026-05-05 18:44 43.18730 -2.60215 5619 ft 201 kts 297°
2026-05-05 18:44 43.19365 -2.61929 5315 ft 202 kts 297°
2026-05-05 18:44 43.20002 -2.63648 5019 ft 203 kts 296°
2026-05-05 18:45 43.20645 -2.65384 4702 ft 204 kts 297°
2026-05-05 18:45 43.21278 -2.67094 4381 ft 198 kts 297°
2026-05-05 18:45 43.21889 -2.68746 4079 ft 192 kts 297°
2026-05-05 18:45 43.22488 -2.70364 3791 ft 190 kts 297°
2026-05-05 18:46 43.23090 -2.71993 3499 ft 192 kts 297°
2026-05-05 18:46 43.23698 -2.73639 3205 ft 195 kts 296°
2026-05-05 18:46 43.24312 -2.75302 2900 ft 196 kts 296°
2026-05-05 18:46 43.24720 -2.76408 2695 ft 197 kts 296°
2026-05-05 18:47 43.25513 -2.78559 2320 ft 182 kts 296°
2026-05-05 18:47 43.26059 -2.80040 2035 ft 168 kts 296°
2026-05-05 18:47 43.26566 -2.81418 1775 ft 156 kts 296°
2026-05-05 18:47 43.27039 -2.82703 1549 ft 146 kts 296°
2026-05-05 18:48 43.27480 -2.83901 1315 ft 137 kts 295°
2026-05-05 18:48 43.27772 -2.84693 1175 ft 137 kts 295°
2026-05-05 18:48 43.28197 -2.85850 970 ft 133 kts 294°
2026-05-05 18:48 43.28609 -2.86970 770 ft 130 kts 295°
2026-05-05 18:49 43.29016 -2.88080 570 ft 132 kts 295°
2026-05-05 18:49 43.29427 -2.89200 360 ft 132 kts 295°
2026-05-05 18:49 43.29835 -2.90308 155 ft 128 kts 296°
2026-05-05 18:49 43.30181 -2.91265 123 ft 90 kts 294°
2026-05-05 18:50 43.30370 -2.91807 124 ft 27 kts 297°
2026-05-05 18:50 43.30389 -2.91833 123 ft 1 kts 328°
2026-05-05 18:50 43.30419 -2.91863 125 ft 7 kts 321°
2026-05-05 18:50 43.30507 -2.91968 126 ft 19 kts 321°
2026-05-05 18:51 43.30608 -2.92023 128 ft 13 kts 34°
2026-05-05 18:51 43.30614 -2.91930 128 ft 8 kts 104°
2026-05-05 18:51 43.30598 -2.91879 128 ft 4 kts 116°
2026-05-05 18:51 43.30588 -2.91852 125 ft 2 kts 120°
2026-05-05 18:52 43.30578 -2.91830 125 ft 9 kts 121°
2026-05-05 18:52 43.30530 -2.91699 124 ft 16 kts 116°
2026-05-05 18:52 43.30481 -2.91563 124 ft 19 kts 118°
2026-05-05 18:52 43.30422 -2.91413 124 ft 15 kts 117°
2026-05-05 18:53 43.30382 -2.91304 127 ft 11 kts 117°
2026-05-05 18:53 43.30351 -2.91220 124 ft 15 kts 115°
2026-05-05 18:53 43.30309 -2.91075 125 ft 13 kts 92°
2026-05-05 18:53 43.30331 -2.91019 126 ft 7 kts 39°
2026-05-05 18:54 43.30390 -2.90973 125 ft 11 kts 39°
2026-05-05 18:54 43.30405 -2.90911 126 ft 3 kts 84°
2026-05-05 18:54 43.30407 -2.90821 127 ft 10 kts 91°
2026-05-05 18:54 43.30408 -2.90782 127 ft 4 kts 75°
2026-05-05 18:55 43.30440 -2.90755 123 ft 6 kts 26°
2026-05-05 18:55 43.30461 -2.90741 125 ft 0 kts 26°